RYR6MB EGGP-EIKN
Flight info
| Callsign | RYR6MB |
|---|---|
| Flight time | 0h 47m |
| Altitude | 32000 |
| Route | WAL L10 PENIL M144 BAGSO DCT DUB DCT OLAPO DCT CON |
| Aircraft | B738/M-SDE2E3FGHIRWXY/LB1 |
Departure
| Time | 2026-04-25 11:01 |
|---|---|
| Airport | Liverpool John Lennon Airport (EGGP) |
Arrival
| Time | 2026-04-25 11:48 |
|---|---|
| Airport | Ireland West Airport Knock (EIKN) |
| Time | Latitude | Longitude | Altitude | Speed | Heading |
|---|---|---|---|---|---|
| 2026-04-25 10:34 | 53.33657 | -2.85654 | 88 ft | 0 kts | 355° |
| 2026-04-25 10:53 | 53.33655 | -2.85654 | 88 ft | 1 kts | 355° |
| 2026-04-25 10:53 | 53.33639 | -2.85651 | 89 ft | 3 kts | 344° |
| 2026-04-25 10:53 | 53.33621 | -2.85639 | 88 ft | 3 kts | 320° |
| 2026-04-25 10:53 | 53.33609 | -2.85615 | 91 ft | 3 kts | 282° |
| 2026-04-25 10:54 | 53.33608 | -2.85598 | 90 ft | 0 kts | 265° |
| 2026-04-25 10:56 | 53.33608 | -2.85599 | 90 ft | 2 kts | 265° |
| 2026-04-25 10:57 | 53.33604 | -2.85670 | 89 ft | 10 kts | 265° |
| 2026-04-25 10:57 | 53.33597 | -2.85823 | 92 ft | 15 kts | 265° |
| 2026-04-25 10:57 | 53.33572 | -2.85936 | 91 ft | 9 kts | 194° |
| 2026-04-25 10:57 | 53.33508 | -2.85933 | 88 ft | 9 kts | 184° |
| 2026-04-25 10:58 | 53.33481 | -2.86030 | 89 ft | 12 kts | 264° |
| 2026-04-25 10:58 | 53.33474 | -2.86174 | 88 ft | 13 kts | 266° |
| 2026-04-25 10:58 | 53.33467 | -2.86321 | 89 ft | 12 kts | 265° |
| 2026-04-25 10:58 | 53.33460 | -2.86464 | 88 ft | 12 kts | 265° |
| 2026-04-25 10:59 | 53.33454 | -2.86604 | 88 ft | 12 kts | 265° |
| 2026-04-25 10:59 | 53.33414 | -2.86716 | 88 ft | 12 kts | 212° |
| 2026-04-25 10:59 | 53.33339 | -2.86717 | 89 ft | 11 kts | 153° |
| 2026-04-25 10:59 | 53.33292 | -2.86655 | 88 ft | 6 kts | 135° |
| 2026-04-25 11:00 | 53.33288 | -2.86589 | 90 ft | 6 kts | 85° |
| 2026-04-25 11:00 | 53.33296 | -2.86439 | 89 ft | 32 kts | 85° |
| 2026-04-25 11:00 | 53.33333 | -2.85627 | 90 ft | 106 kts | 85° |
| 2026-04-25 11:00 | 53.33404 | -2.84053 | 98 ft | 166 kts | 86° |
| 2026-04-25 11:01 | 53.33501 | -2.82052 | 696 ft | 178 kts | 85° |
| 2026-04-25 11:01 | 53.33714 | -2.79952 | 1477 ft | 188 kts | 68° |
| 2026-04-25 11:01 | 53.34547 | -2.78173 | 2160 ft | 204 kts | 35° |
| 2026-04-25 11:01 | 53.35875 | -2.77287 | 2780 ft | 212 kts | 4° |
| 2026-04-25 11:02 | 53.37316 | -2.77761 | 3328 ft | 223 kts | 332° |
| 2026-04-25 11:02 | 53.38517 | -2.79450 | 4029 ft | 226 kts | 310° |
| 2026-04-25 11:02 | 53.39522 | -2.81463 | 4986 ft | 224 kts | 309° |
| 2026-04-25 11:02 | 53.40525 | -2.83453 | 5806 ft | 224 kts | 309° |
| 2026-04-25 11:03 | 53.41571 | -2.85523 | 6245 ft | 245 kts | 310° |
| 2026-04-25 11:03 | 53.42732 | -2.87829 | 6585 ft | 269 kts | 310° |
| 2026-04-25 11:03 | 53.43940 | -2.90287 | 7276 ft | 276 kts | 304° |
| 2026-04-25 11:03 | 53.44830 | -2.93096 | 8119 ft | 276 kts | 294° |
| 2026-04-25 11:04 | 53.45646 | -2.96038 | 8974 ft | 279 kts | 295° |
| 2026-04-25 11:04 | 53.46477 | -2.99009 | 9812 ft | 283 kts | 295° |
| 2026-04-25 11:04 | 53.47322 | -3.02027 | 10593 ft | 286 kts | 295° |
| 2026-04-25 11:04 | 53.47886 | -3.04040 | 11087 ft | 288 kts | 295° |
| 2026-04-25 11:05 | 53.49002 | -3.08200 | 12013 ft | 297 kts | 288° |
| 2026-04-25 11:05 | 53.49540 | -3.11701 | 12195 ft | 321 kts | 280° |
| 2026-04-25 11:05 | 53.49948 | -3.15452 | 12498 ft | 338 kts | 279° |
| 2026-04-25 11:05 | 53.50350 | -3.19408 | 13138 ft | 345 kts | 279° |
| 2026-04-25 11:06 | 53.50766 | -3.23388 | 13911 ft | 348 kts | 279° |
| 2026-04-25 11:06 | 53.51205 | -3.27419 | 14614 ft | 350 kts | 279° |
| 2026-04-25 11:06 | 53.51660 | -3.31462 | 15303 ft | 353 kts | 279° |
| 2026-04-25 11:06 | 53.52132 | -3.35548 | 15986 ft | 356 kts | 280° |
| 2026-04-25 11:07 | 53.52606 | -3.39593 | 16646 ft | 359 kts | 280° |
| 2026-04-25 11:07 | 53.53093 | -3.43732 | 17321 ft | 362 kts | 280° |
| 2026-04-25 11:07 | 53.53585 | -3.47899 | 17985 ft | 366 kts | 279° |
| 2026-04-25 11:07 | 53.54083 | -3.52119 | 18620 ft | 369 kts | 279° |
| 2026-04-25 11:08 | 53.54586 | -3.56381 | 19173 ft | 372 kts | 279° |
| 2026-04-25 11:08 | 53.55090 | -3.60677 | 19722 ft | 376 kts | 279° |
| 2026-04-25 11:08 | 53.55599 | -3.65017 | 20302 ft | 377 kts | 279° |
| 2026-04-25 11:08 | 53.56106 | -3.69360 | 20899 ft | 380 kts | 279° |
| 2026-04-25 11:09 | 53.56616 | -3.73742 | 21390 ft | 384 kts | 279° |
| 2026-04-25 11:09 | 53.57131 | -3.78185 | 21889 ft | 388 kts | 279° |
| 2026-04-25 11:09 | 53.57643 | -3.82622 | 22397 ft | 392 kts | 279° |
| 2026-04-25 11:09 | 53.58165 | -3.87158 | 22907 ft | 395 kts | 278° |
| 2026-04-25 11:10 | 53.58688 | -3.91712 | 23408 ft | 398 kts | 278° |
| 2026-04-25 11:10 | 53.59038 | -3.94767 | 23738 ft | 400 kts | 278° |
| 2026-04-25 11:10 | 53.59744 | -4.00963 | 24303 ft | 404 kts | 278° |
| 2026-04-25 11:10 | 53.60272 | -4.05612 | 24744 ft | 406 kts | 278° |
| 2026-04-25 11:11 | 53.60802 | -4.10300 | 25176 ft | 408 kts | 278° |
| 2026-04-25 11:11 | 53.61330 | -4.14982 | 25590 ft | 410 kts | 278° |
| 2026-04-25 11:11 | 53.61857 | -4.19675 | 26038 ft | 411 kts | 278° |
| 2026-04-25 11:11 | 53.62389 | -4.24431 | 26469 ft | 412 kts | 278° |
| 2026-04-25 11:12 | 53.62920 | -4.29194 | 26970 ft | 411 kts | 278° |
| 2026-04-25 11:12 | 53.63439 | -4.33856 | 27547 ft | 408 kts | 278° |
| 2026-04-25 11:12 | 53.63959 | -4.38549 | 28116 ft | 406 kts | 278° |
| 2026-04-25 11:12 | 53.64474 | -4.43226 | 28622 ft | 405 kts | 278° |
| 2026-04-25 11:13 | 53.64880 | -4.47918 | 29103 ft | 403 kts | 272° |
| 2026-04-25 11:13 | 53.65070 | -4.52626 | 29628 ft | 401 kts | 271° |
| 2026-04-25 11:13 | 53.65220 | -4.57312 | 30149 ft | 399 kts | 271° |
| 2026-04-25 11:13 | 53.65359 | -4.61997 | 30556 ft | 399 kts | 271° |
| 2026-04-25 11:14 | 53.65501 | -4.66616 | 30918 ft | 399 kts | 271° |
| 2026-04-25 11:14 | 53.65726 | -4.71262 | 31415 ft | 396 kts | 273° |
| 2026-04-25 11:14 | 53.66001 | -4.75856 | 31938 ft | 392 kts | 274° |
| 2026-04-25 11:14 | 53.66289 | -4.80437 | 32197 ft | 394 kts | 274° |
| 2026-04-25 11:15 | 53.66576 | -4.85066 | 32196 ft | 399 kts | 273° |
| 2026-04-25 11:15 | 53.67131 | -4.94369 | 32188 ft | 395 kts | 273° |
| 2026-04-25 11:16 | 53.67904 | -5.08045 | 32215 ft | 392 kts | 273° |
| 2026-04-25 11:16 | 53.68407 | -5.17248 | 32214 ft | 394 kts | 272° |
| 2026-04-25 11:17 | 53.68904 | -5.26486 | 32223 ft | 396 kts | 273° |
| 2026-04-25 11:17 | 53.69395 | -5.35726 | 32214 ft | 395 kts | 272° |
| 2026-04-25 11:18 | 53.69879 | -5.44969 | 32205 ft | 394 kts | 272° |
| 2026-04-25 11:18 | 53.70353 | -5.54158 | 32205 ft | 391 kts | 272° |
| 2026-04-25 11:19 | 53.70815 | -5.63264 | 32200 ft | 389 kts | 272° |
| 2026-04-25 11:19 | 53.71270 | -5.72361 | 32212 ft | 388 kts | 272° |
| 2026-04-25 11:20 | 53.71714 | -5.81383 | 32211 ft | 388 kts | 272° |
| 2026-04-25 11:20 | 53.72155 | -5.90484 | 32201 ft | 388 kts | 272° |
| 2026-04-25 11:21 | 53.72590 | -5.99602 | 32204 ft | 389 kts | 272° |
| 2026-04-25 11:21 | 53.73017 | -6.08710 | 32100 ft | 388 kts | 272° |
| 2026-04-25 11:22 | 53.73225 | -6.13174 | 31813 ft | 382 kts | 272° |
| 2026-04-25 11:22 | 53.73364 | -6.16181 | 31646 ft | 378 kts | 272° |
| 2026-04-25 11:22 | 53.73631 | -6.22009 | 31303 ft | 372 kts | 272° |
| 2026-04-25 11:22 | 53.73828 | -6.26355 | 31061 ft | 370 kts | 272° |
| 2026-04-25 11:23 | 53.74021 | -6.30675 | 30820 ft | 368 kts | 272° |
| 2026-04-25 11:23 | 53.74261 | -6.34965 | 30527 ft | 365 kts | 275° |
| 2026-04-25 11:23 | 53.74595 | -6.39162 | 30130 ft | 364 kts | 276° |
| 2026-04-25 11:23 | 53.74965 | -6.43386 | 29660 ft | 363 kts | 276° |
| 2026-04-25 11:24 | 53.75339 | -6.47593 | 29191 ft | 361 kts | 276° |
| 2026-04-25 11:24 | 53.75705 | -6.51780 | 28776 ft | 359 kts | 276° |
| 2026-04-25 11:24 | 53.76063 | -6.55964 | 28357 ft | 357 kts | 276° |
| 2026-04-25 11:24 | 53.76411 | -6.60113 | 27925 ft | 356 kts | 276° |
| 2026-04-25 11:25 | 53.76754 | -6.64262 | 27449 ft | 356 kts | 276° |
| 2026-04-25 11:25 | 53.77092 | -6.68397 | 27062 ft | 354 kts | 275° |
| 2026-04-25 11:25 | 53.77427 | -6.72522 | 26675 ft | 352 kts | 275° |
| 2026-04-25 11:25 | 53.77756 | -6.76603 | 26306 ft | 349 kts | 275° |
| 2026-04-25 11:26 | 53.78078 | -6.80628 | 25962 ft | 347 kts | 275° |
| 2026-04-25 11:26 | 53.78401 | -6.84668 | 25604 ft | 345 kts | 275° |
| 2026-04-25 11:26 | 53.78719 | -6.88679 | 25250 ft | 343 kts | 275° |
| 2026-04-25 11:26 | 53.79034 | -6.92668 | 24895 ft | 341 kts | 275° |
| 2026-04-25 11:27 | 53.79346 | -6.96638 | 24554 ft | 339 kts | 275° |
| 2026-04-25 11:27 | 53.79657 | -7.00601 | 24195 ft | 339 kts | 275° |
| 2026-04-25 11:27 | 53.79965 | -7.04552 | 23837 ft | 338 kts | 275° |
| 2026-04-25 11:27 | 53.80063 | -7.05814 | 23711 ft | 338 kts | 275° |
| 2026-04-25 11:28 | 53.80569 | -7.12361 | 23049 ft | 335 kts | 275° |
| 2026-04-25 11:28 | 53.80870 | -7.16266 | 22694 ft | 333 kts | 275° |
| 2026-04-25 11:28 | 53.81166 | -7.20129 | 22344 ft | 330 kts | 274° |
| 2026-04-25 11:28 | 53.81461 | -7.23987 | 21995 ft | 328 kts | 274° |
| 2026-04-25 11:29 | 53.81751 | -7.27799 | 21654 ft | 326 kts | 274° |
| 2026-04-25 11:29 | 53.82037 | -7.31589 | 21320 ft | 324 kts | 274° |
| 2026-04-25 11:29 | 53.82321 | -7.35351 | 20996 ft | 321 kts | 274° |
| 2026-04-25 11:29 | 53.82508 | -7.37843 | 20790 ft | 320 kts | 274° |
| 2026-04-25 11:30 | 53.82786 | -7.41568 | 20443 ft | 319 kts | 274° |
| 2026-04-25 11:30 | 53.83063 | -7.45285 | 20116 ft | 317 kts | 274° |
| 2026-04-25 11:30 | 53.83337 | -7.48980 | 19793 ft | 316 kts | 274° |
| 2026-04-25 11:30 | 53.83609 | -7.52670 | 19464 ft | 314 kts | 274° |
| 2026-04-25 11:31 | 53.83879 | -7.56345 | 19141 ft | 313 kts | 274° |
| 2026-04-25 11:31 | 53.84147 | -7.60000 | 18819 ft | 313 kts | 274° |
| 2026-04-25 11:31 | 53.84409 | -7.63606 | 18496 ft | 312 kts | 274° |
| 2026-04-25 11:31 | 53.84674 | -7.67251 | 18129 ft | 311 kts | 274° |
| 2026-04-25 11:32 | 53.84937 | -7.70889 | 17774 ft | 310 kts | 274° |
| 2026-04-25 11:32 | 53.85197 | -7.74506 | 17438 ft | 308 kts | 274° |
| 2026-04-25 11:32 | 53.85454 | -7.78097 | 17108 ft | 306 kts | 273° |
| 2026-04-25 11:32 | 53.85522 | -7.81677 | 16721 ft | 304 kts | 264° |
| 2026-04-25 11:33 | 53.85389 | -7.85238 | 16389 ft | 302 kts | 262° |
| 2026-04-25 11:33 | 53.85212 | -7.88785 | 16063 ft | 300 kts | 262° |
| 2026-04-25 11:33 | 53.85036 | -7.92268 | 15752 ft | 299 kts | 262° |
| 2026-04-25 11:33 | 53.84868 | -7.95777 | 15427 ft | 298 kts | 262° |
| 2026-04-25 11:34 | 53.84708 | -7.99281 | 15106 ft | 297 kts | 262° |
| 2026-04-25 11:34 | 53.84555 | -8.02760 | 14789 ft | 296 kts | 262° |
| 2026-04-25 11:34 | 53.84406 | -8.06227 | 14481 ft | 295 kts | 262° |
| 2026-04-25 11:34 | 53.84261 | -8.09678 | 14163 ft | 294 kts | 262° |
| 2026-04-25 11:35 | 53.84095 | -8.13144 | 13834 ft | 293 kts | 261° |
| 2026-04-25 11:35 | 53.83881 | -8.16562 | 13497 ft | 291 kts | 260° |
| 2026-04-25 11:35 | 53.83655 | -8.19960 | 13167 ft | 290 kts | 260° |
| 2026-04-25 11:35 | 53.83428 | -8.23350 | 12850 ft | 289 kts | 260° |
| 2026-04-25 11:36 | 53.83207 | -8.26677 | 12530 ft | 287 kts | 260° |
| 2026-04-25 11:36 | 53.82985 | -8.30027 | 12227 ft | 286 kts | 260° |
| 2026-04-25 11:36 | 53.82765 | -8.33367 | 11914 ft | 285 kts | 260° |
| 2026-04-25 11:36 | 53.82546 | -8.36695 | 11610 ft | 283 kts | 260° |
| 2026-04-25 11:37 | 53.82329 | -8.40002 | 11309 ft | 282 kts | 260° |
| 2026-04-25 11:37 | 53.82111 | -8.43302 | 11004 ft | 281 kts | 260° |
| 2026-04-25 11:37 | 53.81894 | -8.46586 | 10699 ft | 280 kts | 260° |
| 2026-04-25 11:37 | 53.81677 | -8.49858 | 10393 ft | 279 kts | 260° |
| 2026-04-25 11:38 | 53.81463 | -8.53078 | 10092 ft | 278 kts | 260° |
| 2026-04-25 11:38 | 53.81245 | -8.56344 | 9762 ft | 278 kts | 261° |
| 2026-04-25 11:38 | 53.81027 | -8.59590 | 9440 ft | 277 kts | 260° |
| 2026-04-25 11:38 | 53.80809 | -8.62828 | 9131 ft | 275 kts | 260° |
| 2026-04-25 11:39 | 53.80595 | -8.66005 | 8831 ft | 274 kts | 260° |
| 2026-04-25 11:39 | 53.80378 | -8.69212 | 8533 ft | 273 kts | 260° |
| 2026-04-25 11:39 | 53.80161 | -8.72393 | 8241 ft | 271 kts | 260° |
| 2026-04-25 11:39 | 53.79944 | -8.75565 | 7948 ft | 270 kts | 260° |
| 2026-04-25 11:40 | 53.79728 | -8.78712 | 7658 ft | 269 kts | 260° |
| 2026-04-25 11:40 | 53.79511 | -8.81861 | 7371 ft | 268 kts | 260° |
| 2026-04-25 11:40 | 53.79297 | -8.84965 | 7073 ft | 263 kts | 260° |
| 2026-04-25 11:40 | 53.79097 | -8.87848 | 6806 ft | 256 kts | 260° |
| 2026-04-25 11:41 | 53.78894 | -8.90768 | 6550 ft | 249 kts | 261° |
| 2026-04-25 11:41 | 53.78695 | -8.93644 | 6276 ft | 242 kts | 260° |
| 2026-04-25 11:41 | 53.78499 | -8.96436 | 6014 ft | 235 kts | 260° |
| 2026-04-25 11:41 | 53.78309 | -8.99137 | 5777 ft | 228 kts | 260° |
| 2026-04-25 11:42 | 53.78122 | -9.01769 | 5459 ft | 224 kts | 260° |
| 2026-04-25 11:42 | 53.77938 | -9.04363 | 5201 ft | 219 kts | 260° |
| 2026-04-25 11:42 | 53.77924 | -9.06870 | 5041 ft | 211 kts | 284° |
| 2026-04-25 11:42 | 53.78686 | -9.08861 | 4877 ft | 203 kts | 320° |
| 2026-04-25 11:43 | 53.79932 | -9.09961 | 4674 ft | 204 kts | 345° |
| 2026-04-25 11:43 | 53.81331 | -9.10433 | 4310 ft | 209 kts | 348° |
| 2026-04-25 11:43 | 53.82757 | -9.10908 | 4043 ft | 201 kts | 348° |
| 2026-04-25 11:43 | 53.84083 | -9.11353 | 3953 ft | 192 kts | 347° |
| 2026-04-25 11:44 | 53.85395 | -9.11795 | 3936 ft | 195 kts | 348° |
| 2026-04-25 11:44 | 53.86726 | -9.11670 | 3820 ft | 191 kts | 28° |
| 2026-04-25 11:44 | 53.87544 | -9.10084 | 3746 ft | 179 kts | 76° |
| 2026-04-25 11:44 | 53.87884 | -9.08039 | 3508 ft | 181 kts | 77° |
| 2026-04-25 11:45 | 53.88182 | -9.05986 | 3262 ft | 177 kts | 79° |
| 2026-04-25 11:45 | 53.88437 | -9.03965 | 3031 ft | 173 kts | 80° |
| 2026-04-25 11:45 | 53.88672 | -9.02007 | 2798 ft | 167 kts | 81° |
| 2026-04-25 11:45 | 53.88895 | -9.00104 | 2615 ft | 168 kts | 81° |
| 2026-04-25 11:46 | 53.89123 | -8.98144 | 2393 ft | 169 kts | 81° |
| 2026-04-25 11:46 | 53.89347 | -8.96222 | 2153 ft | 162 kts | 80° |
| 2026-04-25 11:46 | 53.89556 | -8.94429 | 1965 ft | 147 kts | 81° |
| 2026-04-25 11:46 | 53.89752 | -8.92749 | 1736 ft | 143 kts | 83° |
| 2026-04-25 11:47 | 53.89942 | -8.91115 | 1575 ft | 142 kts | 83° |
| 2026-04-25 11:47 | 53.90134 | -8.89475 | 1380 ft | 140 kts | 82° |
| 2026-04-25 11:47 | 53.90322 | -8.87868 | 1194 ft | 139 kts | 82° |
| 2026-04-25 11:47 | 53.90513 | -8.86275 | 995 ft | 136 kts | 82° |
| 2026-04-25 11:48 | 53.90695 | -8.84724 | 808 ft | 134 kts | 84° |
| 2026-04-25 11:48 | 53.90879 | -8.83168 | 624 ft | 134 kts | 83° |
| 2026-04-25 11:48 | 53.91037 | -8.81795 | 631 ft | 92 kts | 78° |
| 2026-04-25 11:48 | 53.91120 | -8.81095 | 650 ft | 36 kts | 78° |
| 2026-04-25 11:49 | 53.91147 | -8.80891 | 659 ft | 12 kts | 62° |
| 2026-04-25 11:49 | 53.91223 | -8.80880 | 655 ft | 10 kts | 349° |
| 2026-04-25 11:49 | 53.91285 | -8.80902 | 654 ft | 8 kts | 348° |
| 2026-04-25 11:49 | 53.91335 | -8.80920 | 654 ft | 3 kts | 348° |
| 2026-04-25 11:50 | 53.91347 | -8.80942 | 656 ft | 3 kts | 289° |
| 2026-04-25 11:50 | 53.91347 | -8.80985 | 653 ft | 3 kts | 262° |
| 2026-04-25 11:50 | 53.91343 | -8.81015 | 654 ft | 0 kts | 259° |